Time;durP1;ratioP1;P1;durP2;ratioP2;P2;SDS_P1;SDS_P2;PMS_P1;PMS_P2;Temp;Humidity;BMP_temperature;BMP_pressure;BME280_temperature;BME280_humidity;BME280_pressure;Samples;Min_cycle;Max_cycle;Signal;HPM_P1;HPM_P2
2021/11/05 00:01:12;;;;;;;188.80;59.30;;;6.30;99.90;;;;;;5009097;28;20044;-69
2021/11/05 00:03:42;;;;;;;220.52;67.68;;;6.30;99.90;;;;;;5013712;28;20127;-70
2021/11/05 00:06:10;;;;;;;213.18;63.60;;;6.20;99.90;;;;;;5012977;28;20397;-70
2021/11/05 00:08:39;;;;;;;197.15;63.55;;;6.20;99.90;;;;;;5031320;28;20055;-70
2021/11/05 00:11:08;;;;;;;204.45;60.53;;;6.20;99.90;;;;;;5038404;28;20041;-69
2021/11/05 00:13:36;;;;;;;209.65;64.65;;;6.20;99.90;;;;;;5028790;28;20068;-70
2021/11/05 00:16:04;;;;;;;219.45;68.72;;;6.20;99.90;;;;;;5013992;28;20069;-71
2021/11/05 00:18:31;;;;;;;252.02;74.28;;;6.20;99.90;;;;;;4997072;28;20044;-70
2021/11/05 00:20:59;;;;;;;257.38;75.85;;;6.20;99.90;;;;;;5008616;28;20048;-70
2021/11/05 00:23:29;;;;;;;285.67;78.10;;;6.30;99.90;;;;;;5027993;28;20118;-70
2021/11/05 00:25:57;;;;;;;265.98;77.10;;;6.30;99.90;;;;;;4993670;28;20045;-70
2021/11/05 00:28:25;;;;;;;262.48;79.55;;;6.20;99.90;;;;;;5016585;28;20402;-70
2021/11/05 00:30:52;;;;;;;247.70;77.00;;;6.20;99.90;;;;;;4995969;28;20610;-70
2021/11/05 00:33:20;;;;;;;277.52;78.57;;;6.20;99.90;;;;;;5014385;28;20092;-70
2021/11/05 00:35:48;;;;;;;270.23;79.57;;;6.30;99.90;;;;;;5029528;28;20033;-70
2021/11/05 00:38:17;;;;;;;260.42;79.25;;;6.30;99.90;;;;;;5012230;28;20202;-70
2021/11/05 00:40:44;;;;;;;266.48;77.38;;;6.30;99.90;;;;;;5028181;28;20056;-70
2021/11/05 00:43:18;;;;;;;275.38;79.35;;;6.20;99.90;;;;;;5013755;28;20041;-70
2021/11/05 00:45:48;;;;;;;254.70;76.40;;;6.20;99.90;;;;;;5011565;28;20510;-70
2021/11/05 00:48:25;;;;;;;263.08;81.25;;;6.20;99.90;;;;;;5030265;28;20036;-70
2021/11/05 00:50:53;;;;;;;276.27;81.75;;;6.20;99.90;;;;;;5005954;28;20450;-72
2021/11/05 00:53:21;;;;;;;313.98;86.43;;;6.20;99.90;;;;;;5005502;28;20487;-70
2021/11/05 00:55:51;;;;;;;322.92;86.22;;;6.20;99.90;;;;;;4996915;28;20522;-71
2021/11/05 00:58:24;;;;;;;256.63;77.05;;;6.30;99.90;;;;;;4996025;28;20443;-71
2021/11/05 01:00:52;;;;;;;266.65;75.38;;;6.30;99.90;;;;;;5007345;28;20044;-71
2021/11/05 01:03:20;;;;;;;219.05;69.03;;;6.30;99.90;;;;;;5046541;28;20079;-71
2021/11/05 01:05:48;;;;;;;210.32;66.03;;;6.30;99.90;;;;;;4992822;28;20407;-71
2021/11/05 01:08:16;;;;;;;170.23;57.25;;;6.20;99.90;;;;;;5036049;28;20106;-71
2021/11/05 01:10:43;;;;;;;165.95;56.25;;;6.20;99.90;;;;;;5003266;28;20041;-70
2021/11/05 01:13:11;;;;;;;195.88;60.63;;;6.30;99.90;;;;;;5011536;28;20099;-71
2021/11/05 01:15:41;;;;;;;176.77;56.97;;;6.20;99.90;;;;;;5013466;28;20057;-71
2021/11/05 01:18:09;;;;;;;195.70;58.08;;;6.30;99.90;;;;;;5012747;28;20049;-70
2021/11/05 01:20:37;;;;;;;175.43;57.17;;;6.20;99.90;;;;;;5011197;28;20060;-71
2021/11/05 01:23:09;;;;;;;184.10;55.17;;;6.30;99.90;;;;;;5029450;28;20067;-71
2021/11/05 01:25:41;;;;;;;212.85;62.75;;;6.20;99.90;;;;;;4996697;28;20276;-71
2021/11/05 01:28:08;;;;;;;212.70;63.88;;;6.20;99.90;;;;;;5012326;28;20495;-70
2021/11/05 01:30:36;;;;;;;249.82;67.35;;;6.20;99.90;;;;;;5019337;28;20072;-70
2021/11/05 01:33:07;;;;;;;245.55;69.70;;;6.20;99.90;;;;;;5012244;28;20390;-70
2021/11/05 01:35:36;;;;;;;238.40;66.43;;;6.30;99.90;;;;;;4994251;28;20138;-70
2021/11/05 01:38:06;;;;;;;235.45;67.63;;;6.20;99.90;;;;;;4996201;28;20045;-70
2021/11/05 01:40:35;;;;;;;220.15;64.95;;;6.20;99.90;;;;;;5007141;28;20039;-69
2021/11/05 01:43:04;;;;;;;230.52;63.70;;;6.20;99.90;;;;;;4996735;28;20572;-69
2021/11/05 01:45:32;;;;;;;212.32;62.25;;;6.30;99.90;;;;;;5028492;28;20044;-70
2021/11/05 01:48:00;;;;;;;239.50;66.57;;;6.20;99.90;;;;;;5011575;28;20170;-70
2021/11/05 01:50:28;;;;;;;298.65;73.22;;;6.20;99.90;;;;;;5025241;28;20143;-70
2021/11/05 01:53:06;;;;;;;320.75;74.05;;;6.30;99.90;;;;;;5028899;28;20049;-70
2021/11/05 01:55:34;;;;;;;340.30;79.72;;;6.30;99.90;;;;;;4995739;28;20045;-70
2021/11/05 01:58:01;;;;;;;342.25;80.45;;;6.30;99.90;;;;;;5007818;28;20133;-70
2021/11/05 02:00:31;;;;;;;330.13;76.80;;;6.30;99.90;;;;;;5011392;28;20412;-70
2021/11/05 02:02:59;;;;;;;377.90;82.07;;;6.30;99.90;;;;;;5021413;28;20138;-70
2021/11/05 02:05:27;;;;;;;419.48;85.85;;;6.30;99.90;;;;;;4990411;28;20050;-70
2021/11/05 02:07:57;;;;;;;464.92;90.28;;;6.20;99.90;;;;;;4999193;28;20045;-70
2021/11/05 02:10:27;;;;;;;501.67;93.43;;;6.20;99.90;;;;;;5041765;28;20056;-69
2021/11/05 02:12:56;;;;;;;593.20;102.93;;;6.20;99.90;;;;;;4995331;28;20560;-69
2021/11/05 02:15:25;;;;;;;736.60;117.30;;;6.20;99.90;;;;;;5045079;28;20118;-69
2021/11/05 02:17:53;;;;;;;700.90;115.03;;;6.20;99.90;;;;;;5013081;28;20075;-69
2021/11/05 02:20:27;;;;;;;864.78;131.93;;;6.20;99.90;;;;;;5010691;28;20052;-69
2021/11/05 02:22:57;;;;;;;978.85;140.48;;;6.20;99.90;;;;;;4997610;28;20045;-69
2021/11/05 02:25:25;;;;;;;982.40;135.07;;;6.20;99.90;;;;;;5027196;28;20040;-70
2021/11/05 02:28:01;;;;;;;1048.07;142.27;;;6.30;99.90;;;;;;5028665;28;20053;-69
2021/11/05 02:30:29;;;;;;;1096.63;139.07;;;6.30;99.90;;;;;;5024822;28;20116;-70
2021/11/05 02:32:57;;;;;;;1016.33;139.38;;;6.20;99.90;;;;;;5011173;28;20104;-69
2021/11/05 02:35:25;;;;;;;1092.05;144.93;;;6.20;99.90;;;;;;4994012;28;20051;-69
2021/11/05 02:37:53;;;;;;;1040.35;139.50;;;6.20;99.90;;;;;;4993209;28;20138;-70
2021/11/05 02:40:23;;;;;;;835.72;125.07;;;6.20;99.90;;;;;;5009694;28;20053;-69
2021/11/05 02:42:53;;;;;;;890.90;128.40;;;6.20;99.90;;;;;;5016086;28;20070;-70
2021/11/05 02:45:50;;;;;;;945.95;132.27;;;6.10;99.90;;;;;;4996351;28;20275;-69
2021/11/05 02:48:17;;;;;;;990.13;135.88;;;6.20;99.90;;;;;;4996227;28;20053;-70
2021/11/05 02:50:48;;;;;;;1046.60;139.60;;;6.20;99.90;;;;;;5027239;28;20051;-69
2021/11/05 02:53:18;;;;;;;964.03;130.13;;;6.20;99.90;;;;;;5012210;28;20139;-70
2021/11/05 02:55:47;;;;;;;902.78;127.60;;;6.20;99.90;;;;;;4995559;28;20131;-69
2021/11/05 02:58:17;;;;;;;579.58;95.95;;;6.10;99.90;;;;;;4993236;28;20573;-69
2021/11/05 03:00:45;;;;;;;510.05;89.65;;;6.20;99.90;;;;;;4998984;28;20103;-70
2021/11/05 03:03:14;;;;;;;523.33;92.80;;;6.10;99.90;;;;;;5028535;28;20064;-70
2021/11/05 03:05:42;;;;;;;791.97;115.28;;;6.10;99.90;;;;;;4995276;28;20045;-69
2021/11/05 03:08:10;;;;;;;694.00;109.22;;;6.10;99.90;;;;;;4992197;28;20365;-70
2021/11/05 03:10:38;;;;;;;559.53;97.28;;;6.10;99.90;;;;;;5007444;28;20499;-69
2021/11/05 03:13:05;;;;;;;556.72;95.53;;;6.00;99.90;;;;;;5008521;28;20046;-69
2021/11/05 03:15:33;;;;;;;587.17;98.35;;;6.00;99.90;;;;;;4990981;28;20554;-69
2021/11/05 03:18:01;;;;;;;1056.18;136.38;;;6.10;99.90;;;;;;5029001;28;20064;-69
2021/11/05 03:20:29;;;;;;;802.78;115.30;;;6.20;99.90;;;;;;4994206;28;20122;-70
2021/11/05 03:22:57;;;;;;;882.60;122.03;;;6.20;99.90;;;;;;4998195;28;20102;-69
2021/11/05 03:25:25;;;;;;;715.83;107.53;;;6.20;99.90;;;;;;5015248;28;20299;-70
2021/11/05 03:27:52;;;;;;;372.73;80.00;;;6.20;99.90;;;;;;5014774;28;20102;-69
2021/11/05 03:30:20;;;;;;;302.35;69.13;;;6.10;99.90;;;;;;5005102;28;20463;-69
2021/11/05 03:32:48;;;;;;;293.13;65.50;;;6.10;99.90;;;;;;4998255;28;20045;-70
2021/11/05 03:35:18;;;;;;;318.25;70.15;;;6.10;99.90;;;;;;4997394;28;20041;-69
2021/11/05 03:37:46;;;;;;;395.30;78.18;;;6.10;99.90;;;;;;4999567;28;20132;-69
2021/11/05 03:40:17;;;;;;;378.45;78.60;;;6.10;99.90;;;;;;5006148;28;20076;-68
2021/11/05 03:42:52;;;;;;;412.42;77.18;;;6.10;99.90;;;;;;4996214;28;20119;-70
2021/11/05 03:45:20;;;;;;;514.22;91.05;;;6.10;99.90;;;;;;4998058;28;20134;-70
2021/11/05 03:47:49;;;;;;;758.30;111.57;;;6.20;99.90;;;;;;5012743;28;20126;-68
2021/11/05 03:50:17;;;;;;;762.90;111.38;;;6.20;99.90;;;;;;5012232;28;20103;-70
2021/11/05 03:52:46;;;;;;;887.47;121.47;;;6.20;99.90;;;;;;5017985;28;20048;-70
2021/11/05 03:55:14;;;;;;;773.80;104.78;;;6.20;99.90;;;;;;5002807;28;20042;-69
2021/11/05 03:57:42;;;;;;;920.35;128.02;;;6.30;99.90;;;;;;4998377;28;20206;-69
2021/11/05 04:00:11;;;;;;;874.95;120.57;;;6.10;99.90;;;;;;4996866;28;20048;-70
2021/11/05 04:02:42;;;;;;;1013.42;126.30;;;6.10;99.90;;;;;;5013692;28;20041;-69
2021/11/05 04:05:11;;;;;;;875.92;120.07;;;6.10;99.90;;;;;;5028886;28;20037;-69
2021/11/05 04:07:42;;;;;;;848.53;119.72;;;6.10;99.90;;;;;;4999746;28;20496;-68
2021/11/05 04:10:11;;;;;;;728.60;104.78;;;6.10;99.90;;;;;;4997422;28;20033;-68
2021/11/05 04:12:42;;;;;;;840.92;119.50;;;6.10;99.90;;;;;;5014111;28;20103;-70
2021/11/05 04:15:10;;;;;;;790.22;110.07;;;6.10;99.90;;;;;;4997123;28;20319;-69
2021/11/05 04:17:38;;;;;;;863.90;118.20;;;6.10;99.90;;;;;;4999113;28;20068;-69
2021/11/05 04:20:07;;;;;;;860.60;118.70;;;6.10;99.90;;;;;;5009488;28;20048;-69
2021/11/05 04:22:35;;;;;;;616.67;99.13;;;6.10;99.90;;;;;;5016523;28;20414;-69
2021/11/05 04:25:03;;;;;;;689.95;99.88;;;6.00;99.90;;;;;;4996171;28;20059;-70
2021/11/05 04:27:31;;;;;;;589.50;94.15;;;6.10;99.90;;;;;;5027222;28;20045;-70
2021/11/05 04:29:59;;;;;;;625.08;96.25;;;6.10;99.90;;;;;;4999996;28;20049;-69
2021/11/05 04:32:27;;;;;;;556.55;91.45;;;6.10;99.90;;;;;;4993279;28;20281;-69
2021/11/05 04:34:55;;;;;;;630.15;99.07;;;6.00;99.90;;;;;;5029898;28;20048;-70
2021/11/05 04:37:22;;;;;;;616.75;98.13;;;6.10;99.90;;;;;;4992924;28;20447;-69
2021/11/05 04:39:50;;;;;;;587.58;94.65;;;6.10;99.90;;;;;;5017994;28;20056;-70
2021/11/05 04:42:18;;;;;;;613.85;98.78;;;6.00;99.90;;;;;;5014571;28;20114;-69
2021/11/05 04:44:45;;;;;;;588.03;96.25;;;6.00;99.90;;;;;;4996479;28;20078;-69
2021/11/05 04:47:13;;;;;;;650.85;101.85;;;6.00;99.90;;;;;;5028302;28;20056;-69
2021/11/05 04:49:41;;;;;;;570.72;91.10;;;6.00;99.90;;;;;;4993578;28;20041;-69
2021/11/05 04:52:09;;;;;;;843.00;116.75;;;6.00;99.90;;;;;;5006898;28;20051;-69
2021/11/05 04:54:36;;;;;;;876.97;125.60;;;6.00;99.90;;;;;;5004471;28;20102;-69
2021/11/05 04:57:04;;;;;;;821.70;115.47;;;6.00;99.90;;;;;;5003238;28;20130;-70
2021/11/05 04:59:32;;;;;;;857.15;119.80;;;6.00;99.90;;;;;;4996158;28;20503;-70
2021/11/05 05:02:00;;;;;;;824.92;114.68;;;6.00;99.90;;;;;;4994479;28;20361;-69
2021/11/05 05:04:30;;;;;;;674.60;97.38;;;6.00;99.90;;;;;;5013498;28;20045;-69
2021/11/05 05:07:01;;;;;;;820.35;108.40;;;5.90;99.90;;;;;;5012536;28;20128;-69
2021/11/05 05:09:28;;;;;;;847.78;120.50;;;5.90;99.90;;;;;;5010013;28;20136;-70
2021/11/05 05:11:56;;;;;;;964.85;124.85;;;5.90;99.90;;;;;;5009256;28;20065;-69
2021/11/05 05:14:24;;;;;;;901.10;124.68;;;5.90;99.90;;;;;;5020237;28;20041;-69
2021/11/05 05:16:52;;;;;;;798.72;111.90;;;5.90;99.90;;;;;;5028400;28;20079;-70
2021/11/05 05:19:21;;;;;;;813.95;112.30;;;6.00;99.90;;;;;;4991741;28;20045;-70
2021/11/05 05:21:48;;;;;;;774.38;105.65;;;5.90;99.90;;;;;;4992142;28;20049;-68
2021/11/05 05:24:16;;;;;;;885.97;119.68;;;5.90;99.90;;;;;;5022314;28;20049;-70
2021/11/05 05:26:44;;;;;;;629.85;96.07;;;6.00;99.90;;;;;;5011924;28;20225;-70
2021/11/05 05:29:13;;;;;;;488.70;82.18;;;6.00;99.90;;;;;;4993761;28;20044;-68
2021/11/05 05:31:41;;;;;;;481.52;77.43;;;6.00;99.90;;;;;;5011328;28;20064;-70
2021/11/05 05:34:09;;;;;;;506.92;79.55;;;5.90;99.90;;;;;;5009367;28;20041;-69
2021/11/05 05:36:37;;;;;;;572.45;82.80;;;5.90;99.90;;;;;;4993067;28;20136;-69
2021/11/05 05:39:06;;;;;;;668.08;96.88;;;5.90;99.90;;;;;;4986141;28;20622;-69
2021/11/05 05:41:37;;;;;;;706.20;100.38;;;5.90;99.90;;;;;;5002399;28;20040;-70
2021/11/05 05:44:07;;;;;;;709.55;98.45;;;5.90;99.90;;;;;;5013518;28;20048;-68
2021/11/05 05:46:35;;;;;;;793.28;105.60;;;6.00;99.90;;;;;;5024549;28;20049;-70
2021/11/05 05:49:02;;;;;;;909.65;118.15;;;6.00;99.90;;;;;;5010424;28;20558;-70
2021/11/05 05:51:33;;;;;;;679.25;100.35;;;6.00;99.90;;;;;;4991766;28;20132;-69
2021/11/05 05:54:01;;;;;;;520.17;84.60;;;5.90;99.90;;;;;;4994440;28;20045;-69
2021/11/05 05:56:31;;;;;;;587.92;90.80;;;5.90;99.90;;;;;;5004221;28;20048;-70
2021/11/05 05:59:04;;;;;;;437.83;75.20;;;6.00;99.90;;;;;;4993008;28;20055;-69
2021/11/05 06:01:32;;;;;;;457.50;82.70;;;5.90;99.90;;;;;;5008597;28;20037;-70
2021/11/05 06:04:01;;;;;;;480.77;81.72;;;6.00;99.90;;;;;;4993154;28;20503;-70
2021/11/05 06:06:29;;;;;;;323.58;67.47;;;6.10;99.90;;;;;;5027985;28;20122;-69
2021/11/05 06:09:01;;;;;;;372.85;73.13;;;6.10;99.90;;;;;;5026275;28;20057;-69
2021/11/05 06:11:30;;;;;;;414.98;79.18;;;6.00;99.90;;;;;;4992943;28;20060;-69
2021/11/05 06:13:58;;;;;;;568.85;90.88;;;6.10;99.90;;;;;;5032495;28;20048;-69
2021/11/05 06:16:25;;;;;;;558.78;93.82;;;6.10;99.90;;;;;;4994358;28;20048;-68
2021/11/05 06:18:57;;;;;;;553.22;94.75;;;6.10;99.90;;;;;;4994505;28;20110;-69
2021/11/05 06:21:26;;;;;;;527.15;91.25;;;6.10;99.90;;;;;;4993487;28;20052;-70
2021/11/05 06:23:56;;;;;;;716.15;104.95;;;6.10;99.90;;;;;;5009351;28;20057;-69
2021/11/05 06:26:24;;;;;;;470.42;87.68;;;6.20;99.90;;;;;;4993432;28;20046;-70
2021/11/05 06:28:52;;;;;;;518.88;87.82;;;6.10;99.90;;;;;;4989113;28;20136;-69
2021/11/05 06:31:19;;;;;;;532.55;91.97;;;6.10;99.90;;;;;;5030601;28;20067;-69
2021/11/05 06:33:47;;;;;;;649.03;100.40;;;6.10;99.90;;;;;;5030073;28;20681;-69
2021/11/05 06:36:15;;;;;;;657.60;102.03;;;6.10;99.90;;;;;;5009773;28;20067;-69
2021/11/05 06:38:43;;;;;;;700.35;104.25;;;6.10;99.90;;;;;;5007912;28;20049;-68
2021/11/05 06:41:13;;;;;;;582.70;91.65;;;6.00;99.90;;;;;;5001402;28;20062;-69
2021/11/05 06:43:41;;;;;;;770.35;109.30;;;6.10;99.90;;;;;;4992668;28;20052;-69
2021/11/05 06:46:09;;;;;;;671.60;98.55;;;6.00;99.90;;;;;;5009163;28;20515;-69
2021/11/05 06:48:37;;;;;;;732.38;101.80;;;6.00;99.90;;;;;;5026138;28;20469;-70
2021/11/05 06:51:05;;;;;;;735.13;98.18;;;6.00;99.90;;;;;;5008641;28;20044;-70
2021/11/05 06:53:39;;;;;;;668.17;97.78;;;6.00;99.90;;;;;;5006313;28;20444;-70
2021/11/05 06:56:07;;;;;;;731.20;101.65;;;6.00;99.90;;;;;;4992928;28;20068;-69
2021/11/05 06:58:36;;;;;;;790.13;103.20;;;6.00;99.90;;;;;;4994048;28;20069;-70
2021/11/05 07:01:05;;;;;;;692.13;94.10;;;6.10;99.90;;;;;;5016955;28;20049;-70
2021/11/05 07:03:34;;;;;;;900.13;117.55;;;6.10;99.90;;;;;;5027339;28;20045;-70
2021/11/05 07:06:02;;;;;;;897.88;116.20;;;6.00;99.90;;;;;;4991571;28;20045;-70
2021/11/05 07:08:31;;;;;;;823.95;108.82;;;6.00;99.90;;;;;;5009034;28;20160;-70
2021/11/05 07:11:00;;;;;;;748.50;102.15;;;6.10;99.90;;;;;;5025683;28;20048;-71
2021/11/05 07:13:28;;;;;;;726.67;98.88;;;6.10;99.90;;;;;;4993988;28;20061;-70
2021/11/05 07:15:55;;;;;;;741.88;97.28;;;6.10;99.90;;;;;;5009104;28;20055;-71
2021/11/05 07:18:24;;;;;;;611.35;86.85;;;6.10;99.90;;;;;;5010099;28;20458;-69
2021/11/05 07:20:52;;;;;;;413.83;69.63;;;6.00;99.90;;;;;;5008208;28;20106;-71
2021/11/05 07:23:20;;;;;;;355.05;65.22;;;6.00;99.90;;;;;;5009750;28;20056;-70
2021/11/05 07:25:47;;;;;;;346.85;66.68;;;6.00;99.90;;;;;;5008469;28;20127;-71
2021/11/05 07:28:15;;;;;;;326.70;63.83;;;6.10;99.90;;;;;;5026960;28;20072;-71
2021/11/05 07:30:43;;;;;;;318.65;59.00;;;6.00;99.90;;;;;;4982005;28;20103;-71
2021/11/05 07:33:11;;;;;;;328.50;62.75;;;6.00;99.90;;;;;;5034058;28;20045;-71
2021/11/05 07:35:39;;;;;;;356.52;66.35;;;6.10;99.90;;;;;;5027630;28;20526;-70
2021/11/05 07:38:07;;;;;;;348.23;61.65;;;6.00;99.90;;;;;;5010431;28;20542;-70
2021/11/05 07:40:34;;;;;;;348.02;60.55;;;6.10;99.90;;;;;;5005252;28;20142;-70
2021/11/05 07:43:02;;;;;;;340.67;60.67;;;6.10;99.90;;;;;;5008589;28;20046;-71
2021/11/05 07:45:36;;;;;;;349.92;64.78;;;6.10;99.90;;;;;;5024184;28;20042;-71
2021/11/05 07:48:04;;;;;;;390.55;68.38;;;6.10;99.90;;;;;;5007632;28;20042;-70
2021/11/05 07:50:35;;;;;;;460.90;69.28;;;6.10;99.90;;;;;;5007993;28;20045;-70
2021/11/05 07:53:04;;;;;;;426.88;66.07;;;6.10;99.90;;;;;;4994289;28;20470;-70
2021/11/05 07:55:32;;;;;;;433.00;67.10;;;6.00;99.90;;;;;;4991738;28;20041;-70
2021/11/05 07:58:00;;;;;;;426.20;64.55;;;6.10;99.90;;;;;;5010853;28;20139;-69
2021/11/05 08:00:28;;;;;;;445.92;67.82;;;6.20;99.90;;;;;;5009586;28;20052;-70
2021/11/05 08:03:00;;;;;;;371.27;62.30;;;6.20;99.90;;;;;;5012123;28;20118;-70
2021/11/05 08:05:30;;;;;;;385.73;65.00;;;6.10;99.90;;;;;;4995771;28;20385;-68
2021/11/05 08:07:58;;;;;;;395.08;63.75;;;6.20;99.90;;;;;;5006615;28;20057;-68
2021/11/05 08:10:26;;;;;;;446.08;69.35;;;6.10;99.90;;;;;;5014880;28;20045;-69
2021/11/05 08:12:53;;;;;;;493.83;72.93;;;6.20;99.90;;;;;;5029337;28;20045;-69
2021/11/05 08:15:22;;;;;;;535.60;76.65;;;6.20;99.90;;;;;;4995045;28;20146;-69
2021/11/05 08:17:51;;;;;;;506.80;73.63;;;6.20;99.90;;;;;;4995917;28;20073;-70
2021/11/05 08:20:19;;;;;;;428.52;64.68;;;6.30;99.90;;;;;;5028279;28;20052;-69
2021/11/05 08:22:48;;;;;;;436.05;65.60;;;6.30;99.90;;;;;;5036752;28;20037;-70
2021/11/05 08:25:18;;;;;;;439.35;65.82;;;6.30;99.90;;;;;;4989543;28;20037;-70
2021/11/05 08:27:48;;;;;;;396.55;64.68;;;6.30;99.90;;;;;;5011957;28;20049;-69
2021/11/05 08:30:21;;;;;;;398.98;61.55;;;6.30;99.90;;;;;;5023659;28;20470;-71
2021/11/05 08:32:51;;;;;;;430.73;66.65;;;6.20;99.90;;;;;;4994083;28;20050;-70
2021/11/05 08:35:20;;;;;;;483.35;69.63;;;6.20;99.90;;;;;;5009512;28;20108;-70
2021/11/05 08:37:51;;;;;;;441.00;69.35;;;6.30;99.90;;;;;;5025996;28;20053;-71
2021/11/05 08:40:22;;;;;;;482.48;68.38;;;6.30;99.90;;;;;;5026390;28;20045;-70
2021/11/05 08:42:50;;;;;;;436.98;69.63;;;6.40;99.90;;;;;;4997894;28;20060;-70
2021/11/05 08:45:18;;;;;;;416.10;66.72;;;6.30;99.90;;;;;;4989280;28;20102;-69
2021/11/05 08:47:45;;;;;;;353.45;57.92;;;6.40;99.90;;;;;;5026814;28;20519;-70
2021/11/05 08:50:18;;;;;;;303.90;55.22;;;6.40;99.90;;;;;;5013509;28;20064;-70
2021/11/05 08:52:46;;;;;;;270.80;47.88;;;6.40;99.90;;;;;;5013431;28;20589;-71
2021/11/05 08:55:15;;;;;;;313.35;52.70;;;6.40;99.90;;;;;;5012793;28;20569;-70
2021/11/05 08:57:43;;;;;;;360.60;57.22;;;6.50;99.90;;;;;;4996314;28;20037;-71
2021/11/05 09:00:17;;;;;;;325.08;53.88;;;6.50;99.90;;;;;;5026302;28;20318;-70
2021/11/05 09:02:46;;;;;;;359.35;54.65;;;6.50;99.90;;;;;;4995327;28;20041;-70
2021/11/05 09:05:17;;;;;;;341.50;56.35;;;6.50;99.90;;;;;;5012436;28;20045;-71
2021/11/05 09:07:45;;;;;;;362.10;56.03;;;6.50;99.90;;;;;;5011911;28;20049;-71
2021/11/05 09:10:14;;;;;;;388.33;63.45;;;6.50;99.90;;;;;;5018341;28;20051;-70
2021/11/05 09:12:43;;;;;;;376.08;61.83;;;6.60;99.90;;;;;;5011501;28;20048;-71
2021/11/05 09:15:18;;;;;;;297.08;49.33;;;6.60;99.90;;;;;;5009014;28;20044;-71
2021/11/05 09:17:46;;;;;;;296.80;53.78;;;6.60;99.90;;;;;;4994915;28;20037;-71
2021/11/05 09:20:15;;;;;;;307.50;50.88;;;6.50;99.90;;;;;;4993024;28;20414;-71
2021/11/05 09:22:43;;;;;;;213.63;40.78;;;6.50;99.90;;;;;;4996610;28;20079;-70
2021/11/05 09:25:11;;;;;;;234.00;44.22;;;6.60;99.90;;;;;;4995373;28;20503;-71
2021/11/05 09:27:39;;;;;;;270.75;48.90;;;6.60;99.90;;;;;;4995112;28;20064;-71
2021/11/05 09:30:09;;;;;;;277.70;47.50;;;6.60;99.90;;;;;;4995580;28;20045;-70
2021/11/05 09:32:37;;;;;;;300.27;48.63;;;6.70;99.90;;;;;;4992430;28;20119;-70
2021/11/05 09:35:09;;;;;;;262.45;46.35;;;6.70;99.90;;;;;;4991728;28;20560;-70
2021/11/05 09:37:38;;;;;;;302.70;49.70;;;6.70;99.90;;;;;;4990045;28;20045;-70
2021/11/05 09:40:10;;;;;;;356.10;55.53;;;6.70;99.90;;;;;;5010627;28;20081;-70
2021/11/05 09:42:46;;;;;;;427.75;61.35;;;6.70;99.90;;;;;;5007103;28;20106;-71
2021/11/05 09:45:18;;;;;;;545.03;72.90;;;6.80;99.90;;;;;;5027497;28;20045;-70
2021/11/05 09:47:46;;;;;;;360.83;59.22;;;6.80;99.90;;;;;;5010312;28;20045;-70
2021/11/05 09:50:22;;;;;;;394.88;65.93;;;6.80;99.90;;;;;;5012227;28;20037;-71
2021/11/05 09:52:52;;;;;;;378.67;62.97;;;6.80;99.90;;;;;;5011910;28;20052;-70
2021/11/05 09:55:20;;;;;;;398.42;65.63;;;6.90;99.90;;;;;;5016922;28;20083;-71
2021/11/05 09:57:49;;;;;;;459.88;69.70;;;6.90;99.90;;;;;;4992278;28;20329;-71
2021/11/05 10:00:21;;;;;;;385.60;66.65;;;6.90;99.90;;;;;;4990776;28;20284;-70
2021/11/05 10:02:49;;;;;;;390.23;70.05;;;6.80;99.90;;;;;;4995900;28;20385;-70
2021/11/05 10:05:18;;;;;;;417.10;67.10;;;6.80;99.90;;;;;;4994101;28;20513;-71
2021/11/05 10:07:54;;;;;;;456.23;72.13;;;6.80;99.90;;;;;;4994677;28;20033;-71
2021/11/05 10:10:35;;;;;;;405.25;75.18;;;6.90;99.90;;;;;;5005441;28;20087;-70
2021/11/05 10:13:11;;;;;;;411.45;70.97;;;6.90;99.90;;;;;;5027666;28;20069;-70
2021/11/05 10:15:41;;;;;;;450.98;75.07;;;6.90;99.90;;;;;;5010994;28;20049;-71
2021/11/05 10:21:45;;;;;;;249.48;55.13;;;6.90;99.90;;;;;;4998561;28;20049;-70
2021/11/05 10:24:17;;;;;;;276.58;61.42;;;6.90;99.90;;;;;;5011847;28;20269;-71
2021/11/05 10:26:47;;;;;;;333.95;67.18;;;7.00;99.90;;;;;;5031010;28;20102;-70
2021/11/05 10:29:34;;;;;;;333.75;64.45;;;7.00;99.90;;;;;;5020170;28;20503;-69
2021/11/05 10:32:08;;;;;;;302.98;64.55;;;7.00;99.90;;;;;;5009648;28;20045;-70
2021/11/05 10:34:48;;;;;;;286.90;67.03;;;6.90;99.90;;;;;;5011647;28;20140;-71
2021/11/05 10:37:28;;;;;;;275.13;60.92;;;7.00;99.90;;;;;;4993201;28;20048;-70
2021/11/05 10:39:59;;;;;;;265.85;60.05;;;7.00;99.90;;;;;;5000035;28;20048;-70
2021/11/05 10:42:47;;;;;;;273.10;60.53;;;7.10;99.90;;;;;;5005076;28;20045;-71
2021/11/05 10:45:20;;;;;;;234.50;55.38;;;7.20;99.90;;;;;;4990441;28;20310;-71
2021/11/05 10:47:55;;;;;;;193.38;51.40;;;7.20;99.90;;;;;;4984886;28;20044;-70
2021/11/05 10:50:32;;;;;;;187.13;48.08;;;7.20;99.90;;;;;;5009847;28;20102;-71
2021/11/05 10:53:13;;;;;;;169.73;45.50;;;7.10;99.90;;;;;;4995149;28;20040;-70
2021/11/05 10:55:52;;;;;;;201.82;50.88;;;7.10;99.90;;;;;;5008214;28;20037;-70
2021/11/05 10:58:29;;;;;;;222.60;53.80;;;7.10;99.90;;;;;;4991754;28;20049;-69
2021/11/05 11:01:10;;;;;;;233.23;54.08;;;7.10;99.90;;;;;;4983838;28;20289;-70
2021/11/05 11:03:43;;;;;;;224.07;55.63;;;7.30;99.90;;;;;;4994572;28;20150;-71
2021/11/05 11:06:14;;;;;;;219.65;59.22;;;7.40;99.90;;;;;;4993426;28;20033;-70
2021/11/05 11:08:51;;;;;;;237.93;57.13;;;7.40;99.90;;;;;;5007326;28;20037;-70
2021/11/05 11:11:42;;;;;;;189.93;51.78;;;7.40;99.90;;;;;;5023629;28;20563;-70
2021/11/05 11:14:18;;;;;;;174.63;51.05;;;7.40;99.90;;;;;;5009565;28;20052;-70
2021/11/05 11:16:58;;;;;;;151.05;46.85;;;7.40;99.90;;;;;;5010248;28;20116;-70
2021/11/05 11:19:44;;;;;;;173.70;49.90;;;7.50;99.90;;;;;;4994000;28;20049;-71
2021/11/05 11:22:12;;;;;;;166.52;46.40;;;7.50;99.90;;;;;;5025032;28;20503;-71
2021/11/05 11:24:41;;;;;;;175.15;49.97;;;7.50;99.90;;;;;;5013084;28;20052;-70
2021/11/05 11:27:12;;;;;;;187.73;51.90;;;7.50;99.90;;;;;;4995018;28;20065;-70
2021/11/05 11:29:54;;;;;;;177.95;51.10;;;7.50;99.90;;;;;;4995006;28;20048;-70
2021/11/05 11:32:22;;;;;;;198.07;55.25;;;7.50;99.90;;;;;;4993116;28;20045;-71
2021/11/05 11:35:04;;;;;;;163.38;49.45;;;7.50;99.90;;;;;;5007104;28;20041;-71
2021/11/05 11:37:34;;;;;;;188.98;55.03;;;7.40;99.90;;;;;;4989663;28;20546;-71
2021/11/05 11:40:02;;;;;;;178.35;50.55;;;7.50;99.90;;;;;;5014993;28;20041;-71
2021/11/05 11:42:37;;;;;;;182.00;51.97;;;7.60;99.90;;;;;;4989797;28;20049;-71
2021/11/05 11:45:12;;;;;;;186.57;52.67;;;7.60;99.90;;;;;;5013602;28;20098;-71
2021/11/05 11:47:48;;;;;;;193.70;56.70;;;7.60;99.90;;;;;;5014126;28;20041;-71
2021/11/05 11:50:27;;;;;;;191.98;57.42;;;7.60;99.90;;;;;;5014063;28;20227;-70
2021/11/05 11:53:10;;;;;;;180.18;53.80;;;7.60;99.90;;;;;;5012056;28;20096;-69
2021/11/05 11:55:40;;;;;;;134.77;45.53;;;7.70;99.90;;;;;;4993386;28;20033;-70
2021/11/05 11:58:18;;;;;;;169.68;49.42;;;7.70;99.90;;;;;;5012930;28;20059;-69
2021/11/05 12:00:49;;;;;;;148.90;47.75;;;7.70;99.90;;;;;;4995993;28;20049;-69
2021/11/05 12:03:27;;;;;;;130.45;43.75;;;7.90;99.90;;;;;;5030420;28;20044;-69
2021/11/05 12:06:00;;;;;;;133.50;43.72;;;7.90;99.90;;;;;;5012513;28;20045;-69
2021/11/05 12:08:45;;;;;;;133.50;42.90;;;8.00;99.90;;;;;;4999313;28;20056;-69
2021/11/05 12:11:20;;;;;;;126.68;44.00;;;8.00;99.90;;;;;;5003039;28;20044;-70
2021/11/05 12:13:48;;;;;;;115.50;40.55;;;8.10;99.90;;;;;;5014274;28;20041;-70
2021/11/05 12:16:32;;;;;;;78.85;31.13;;;8.00;99.90;;;;;;5013929;28;20047;-70
2021/11/05 12:19:00;;;;;;;98.28;36.13;;;7.90;99.90;;;;;;4993905;28;20051;-70
2021/11/05 12:21:41;;;;;;;115.35;40.30;;;7.90;99.90;;;;;;5010179;28;20273;-70
2021/11/05 12:24:14;;;;;;;123.97;42.13;;;7.90;99.90;;;;;;5010467;28;20052;-70
2021/11/05 12:27:01;;;;;;;116.00;39.55;;;7.90;99.90;;;;;;5025684;28;20073;-71
2021/11/05 12:29:37;;;;;;;99.97;37.78;;;7.90;99.90;;;;;;5008615;28;20040;-71
2021/11/05 12:32:20;;;;;;;95.10;33.85;;;7.80;99.90;;;;;;4997968;28;20048;-72
2021/11/05 12:34:50;;;;;;;105.63;36.38;;;7.80;99.90;;;;;;5014541;28;20037;-72
2021/11/05 12:37:33;;;;;;;124.55;42.08;;;7.80;99.90;;;;;;5013946;28;20107;-72
2021/11/05 12:40:21;;;;;;;110.30;34.20;;;7.80;99.90;;;;;;5023081;28;20049;-72
2021/11/05 12:42:52;;;;;;;110.70;39.30;;;7.90;99.90;;;;;;4998406;28;20049;-72
2021/11/05 12:45:42;;;;;;;85.10;29.65;;;7.90;99.90;;;;;;5014730;28;20079;-72